sensor_id;sensor_type;location;lat;lon;timestamp;pressure;altitude;pressure_sealevel;temperature;humidity
35848;BME280;22332;51.954;20.118;2022-09-24T00:01:37;100314.80;;;5.27;68.99
35848;BME280;22332;51.954;20.118;2022-09-24T00:04:42;100315.23;;;5.23;68.91
35848;BME280;22332;51.954;20.118;2022-09-24T00:07:48;100313.86;;;5.21;68.92
35848;BME280;22332;51.954;20.118;2022-09-24T00:10:53;100313.85;;;5.19;69.06
35848;BME280;22332;51.954;20.118;2022-09-24T00:14:00;100311.64;;;5.15;68.91
35848;BME280;22332;51.954;20.118;2022-09-24T00:17:05;100311.30;;;5.10;68.92
35848;BME280;22332;51.954;20.118;2022-09-24T00:20:11;100313.12;;;5.07;69.08
35848;BME280;22332;51.954;20.118;2022-09-24T00:23:16;100310.27;;;5.07;69.20
35848;BME280;22332;51.954;20.118;2022-09-24T00:26:22;100307.44;;;5.07;69.13
35848;BME280;22332;51.954;20.118;2022-09-24T00:29:45;100307.11;;;5.07;69.00
35848;BME280;22332;51.954;20.118;2022-09-24T00:32:50;100301.36;;;5.06;69.00
35848;BME280;22332;51.954;20.118;2022-09-24T00:36:00;100294.09;;;5.05;68.92
35848;BME280;22332;51.954;20.118;2022-09-24T00:39:07;100293.16;;;5.03;68.92
35848;BME280;22332;51.954;20.118;2022-09-24T00:42:13;100290.98;;;4.99;68.96
35848;BME280;22332;51.954;20.118;2022-09-24T00:45:18;100287.73;;;4.93;68.82
35848;BME280;22332;51.954;20.118;2022-09-24T00:48:25;100283.30;;;4.89;69.07
35848;BME280;22332;51.954;20.118;2022-09-24T00:51:31;100284.28;;;4.85;68.98
35848;BME280;22332;51.954;20.118;2022-09-24T00:54:38;100279.57;;;4.78;68.95
35848;BME280;22332;51.954;20.118;2022-09-24T00:57:47;100283.17;;;4.67;68.97
35848;BME280;22332;51.954;20.118;2022-09-24T01:00:56;100286.55;;;4.59;68.93
35848;BME280;22332;51.954;20.118;2022-09-24T01:04:04;100284.39;;;4.53;68.97
35848;BME280;22332;51.954;20.118;2022-09-24T01:07:10;100279.88;;;4.49;69.07
35848;BME280;22332;51.954;20.118;2022-09-24T01:10:16;100276.54;;;4.47;69.05
35848;BME280;22332;51.954;20.118;2022-09-24T01:14:00;100271.88;;;4.43;69.10
35848;BME280;22332;51.954;20.118;2022-09-24T01:17:16;100269.63;;;4.41;69.00
35848;BME280;22332;51.954;20.118;2022-09-24T01:20:37;100268.18;;;4.36;68.98
35848;BME280;22332;51.954;20.118;2022-09-24T01:27:21;100262.77;;;4.26;69.01
35848;BME280;22332;51.954;20.118;2022-09-24T01:30:30;100263.91;;;4.22;69.09
35848;BME280;22332;51.954;20.118;2022-09-24T01:33:37;100264.98;;;4.20;68.96
35848;BME280;22332;51.954;20.118;2022-09-24T01:36:42;100261.02;;;4.21;69.01
35848;BME280;22332;51.954;20.118;2022-09-24T01:39:51;100261.73;;;4.23;69.01
35848;BME280;22332;51.954;20.118;2022-09-24T01:42:59;100260.11;;;4.26;69.07
35848;BME280;22332;51.954;20.118;2022-09-24T01:46:06;100256.84;;;4.25;68.88
35848;BME280;22332;51.954;20.118;2022-09-24T01:49:13;100258.86;;;4.24;69.01
35848;BME280;22332;51.954;20.118;2022-09-24T01:52:23;100257.09;;;4.24;68.96
35848;BME280;22332;51.954;20.118;2022-09-24T01:55:32;100258.02;;;4.23;68.91
35848;BME280;22332;51.954;20.118;2022-09-24T01:58:47;100255.69;;;4.17;69.08
35848;BME280;22332;51.954;20.118;2022-09-24T02:02:05;100254.23;;;4.07;68.97
35848;BME280;22332;51.954;20.118;2022-09-24T02:05:15;100251.52;;;4.04;69.25
35848;BME280;22332;51.954;20.118;2022-09-24T02:08:24;100252.38;;;4.02;69.23
35848;BME280;22332;51.954;20.118;2022-09-24T02:11:32;100252.89;;;3.99;69.18
35848;BME280;22332;51.954;20.118;2022-09-24T02:14:43;100254.13;;;3.97;69.33
35848;BME280;22332;51.954;20.118;2022-09-24T02:17:53;100252.17;;;3.95;69.21
35848;BME280;22332;51.954;20.118;2022-09-24T02:21:03;100247.84;;;3.94;69.28
35848;BME280;22332;51.954;20.118;2022-09-24T02:24:14;100240.70;;;3.90;69.24
35848;BME280;22332;51.954;20.118;2022-09-24T02:27:21;100241.23;;;3.88;69.50
35848;BME280;22332;51.954;20.118;2022-09-24T02:30:38;100241.06;;;3.85;69.38
35848;BME280;22332;51.954;20.118;2022-09-24T02:33:47;100244.66;;;3.84;69.30
35848;BME280;22332;51.954;20.118;2022-09-24T02:37:13;100247.23;;;3.82;69.59
35848;BME280;22332;51.954;20.118;2022-09-24T02:40:20;100243.54;;;3.85;69.57
35848;BME280;22332;51.954;20.118;2022-09-24T02:43:25;100245.34;;;3.89;69.62
35848;BME280;22332;51.954;20.118;2022-09-24T02:46:31;100242.29;;;3.95;69.73
35848;BME280;22332;51.954;20.118;2022-09-24T02:49:36;100237.73;;;4.02;69.58
35848;BME280;22332;51.954;20.118;2022-09-24T02:52:41;100237.26;;;4.06;69.68
35848;BME280;22332;51.954;20.118;2022-09-24T02:55:47;100241.48;;;4.09;69.62
35848;BME280;22332;51.954;20.118;2022-09-24T02:58:52;100240.00;;;4.10;69.60
35848;BME280;22332;51.954;20.118;2022-09-24T03:01:58;100237.96;;;4.09;69.60
35848;BME280;22332;51.954;20.118;2022-09-24T03:05:04;100239.20;;;4.06;69.69
35848;BME280;22332;51.954;20.118;2022-09-24T03:08:10;100234.70;;;4.03;69.72
35848;BME280;22332;51.954;20.118;2022-09-24T03:11:15;100231.06;;;4.02;69.71
35848;BME280;22332;51.954;20.118;2022-09-24T03:14:20;100227.08;;;4.01;69.70
35848;BME280;22332;51.954;20.118;2022-09-24T03:17:26;100222.55;;;3.98;69.79
35848;BME280;22332;51.954;20.118;2022-09-24T03:20:32;100223.00;;;3.94;69.82
35848;BME280;22332;51.954;20.118;2022-09-24T03:23:37;100220.80;;;3.90;69.78
35848;BME280;22332;51.954;20.118;2022-09-24T03:26:44;100221.42;;;3.86;69.73
35848;BME280;22332;51.954;20.118;2022-09-24T03:29:49;100223.72;;;3.82;69.75
35848;BME280;22332;51.954;20.118;2022-09-24T03:33:12;100227.09;;;3.79;69.95
35848;BME280;22332;51.954;20.118;2022-09-24T03:36:19;100224.55;;;3.77;69.90
35848;BME280;22332;51.954;20.118;2022-09-24T03:39:25;100217.73;;;3.77;70.05
35848;BME280;22332;51.954;20.118;2022-09-24T03:42:31;100214.33;;;3.80;70.13
35848;BME280;22332;51.954;20.118;2022-09-24T03:45:37;100220.73;;;3.84;70.08
35848;BME280;22332;51.954;20.118;2022-09-24T03:48:43;100217.13;;;3.90;70.16
35848;BME280;22332;51.954;20.118;2022-09-24T03:51:50;100217.90;;;3.94;70.06
35848;BME280;22332;51.954;20.118;2022-09-24T03:54:56;100220.63;;;3.92;70.05
35848;BME280;22332;51.954;20.118;2022-09-24T03:58:01;100220.42;;;3.93;70.20
35848;BME280;22332;51.954;20.118;2022-09-24T04:01:08;100224.13;;;3.96;70.24
35848;BME280;22332;51.954;20.118;2022-09-24T04:04:15;100227.61;;;3.99;70.37
35848;BME280;22332;51.954;20.118;2022-09-24T04:07:20;100224.97;;;3.99;70.27
35848;BME280;22332;51.954;20.118;2022-09-24T04:10:26;100221.64;;;3.99;70.28
35848;BME280;22332;51.954;20.118;2022-09-24T04:13:31;100224.21;;;3.97;70.33
35848;BME280;22332;51.954;20.118;2022-09-24T04:16:37;100226.20;;;3.96;70.50
35848;BME280;22332;51.954;20.118;2022-09-24T04:19:43;100226.13;;;3.97;70.73
35848;BME280;22332;51.954;20.118;2022-09-24T04:22:49;100230.84;;;3.96;70.56
35848;BME280;22332;51.954;20.118;2022-09-24T04:25:54;100229.56;;;3.91;70.55
35848;BME280;22332;51.954;20.118;2022-09-24T04:29:00;100225.86;;;3.91;70.67
35848;BME280;22332;51.954;20.118;2022-09-24T04:32:05;100228.49;;;3.91;70.76
35848;BME280;22332;51.954;20.118;2022-09-24T04:35:10;100225.30;;;3.94;70.77
35848;BME280;22332;51.954;20.118;2022-09-24T04:38:16;100225.89;;;4.01;70.85
35848;BME280;22332;51.954;20.118;2022-09-24T04:41:24;100224.89;;;4.07;70.72
35848;BME280;22332;51.954;20.118;2022-09-24T04:44:29;100224.73;;;4.11;70.86
35848;BME280;22332;51.954;20.118;2022-09-24T04:47:36;100222.56;;;4.15;70.89
35848;BME280;22332;51.954;20.118;2022-09-24T04:50:43;100220.05;;;4.18;70.82
35848;BME280;22332;51.954;20.118;2022-09-24T04:53:49;100218.77;;;4.21;70.75
35848;BME280;22332;51.954;20.118;2022-09-24T04:56:54;100217.75;;;4.23;70.92
35848;BME280;22332;51.954;20.118;2022-09-24T05:00:00;100216.09;;;4.23;70.92
35848;BME280;22332;51.954;20.118;2022-09-24T05:03:05;100216.98;;;4.23;70.97
35848;BME280;22332;51.954;20.118;2022-09-24T05:06:11;100218.98;;;4.25;71.01
35848;BME280;22332;51.954;20.118;2022-09-24T05:09:16;100216.55;;;4.27;71.05
35848;BME280;22332;51.954;20.118;2022-09-24T05:12:21;100214.70;;;4.33;71.29
35848;BME280;22332;51.954;20.118;2022-09-24T05:15:27;100212.52;;;4.41;71.41
35848;BME280;22332;51.954;20.118;2022-09-24T05:18:32;100212.90;;;4.50;71.32
35848;BME280;22332;51.954;20.118;2022-09-24T05:21:39;100211.59;;;4.65;71.53
35848;BME280;22332;51.954;20.118;2022-09-24T05:24:45;100210.95;;;4.81;71.53
35848;BME280;22332;51.954;20.118;2022-09-24T05:27:52;100210.38;;;4.99;71.82
35848;BME280;22332;51.954;20.118;2022-09-24T05:30:58;100209.79;;;5.19;71.76
35848;BME280;22332;51.954;20.118;2022-09-24T05:34:05;100211.73;;;5.37;71.85
35848;BME280;22332;51.954;20.118;2022-09-24T05:37:11;100210.73;;;5.52;71.99
35848;BME280;22332;51.954;20.118;2022-09-24T05:40:17;100208.66;;;5.64;72.20
35848;BME280;22332;51.954;20.118;2022-09-24T05:43:40;100206.42;;;5.79;72.30
35848;BME280;22332;51.954;20.118;2022-09-24T05:46:46;100205.09;;;5.91;72.56
35848;BME280;22332;51.954;20.118;2022-09-24T05:49:51;100199.83;;;6.00;72.59
35848;BME280;22332;51.954;20.118;2022-09-24T05:52:57;100201.19;;;6.07;72.82
35848;BME280;22332;51.954;20.118;2022-09-24T05:56:02;100204.92;;;6.13;72.83
35848;BME280;22332;51.954;20.118;2022-09-24T05:59:08;100201.33;;;6.20;73.01
35848;BME280;22332;51.954;20.118;2022-09-24T06:02:14;100205.98;;;6.33;73.26
35848;BME280;22332;51.954;20.118;2022-09-24T06:05:19;100206.73;;;6.43;73.04
35848;BME280;22332;51.954;20.118;2022-09-24T06:08:25;100207.45;;;6.54;73.20
35848;BME280;22332;51.954;20.118;2022-09-24T06:11:31;100208.45;;;6.63;73.44
35848;BME280;22332;51.954;20.118;2022-09-24T06:14:40;100212.48;;;6.71;73.19
35848;BME280;22332;51.954;20.118;2022-09-24T06:17:46;100214.70;;;6.79;73.64
35848;BME280;22332;51.954;20.118;2022-09-24T06:20:51;100213.45;;;6.87;73.87
35848;BME280;22332;51.954;20.118;2022-09-24T06:23:58;100210.06;;;6.98;74.09
35848;BME280;22332;51.954;20.118;2022-09-24T06:27:03;100208.56;;;7.13;74.38
35848;BME280;22332;51.954;20.118;2022-09-24T06:30:10;100208.23;;;7.32;74.42
35848;BME280;22332;51.954;20.118;2022-09-24T06:33:15;100208.82;;;7.57;74.89
35848;BME280;22332;51.954;20.118;2022-09-24T06:36:21;100208.31;;;7.85;75.30
35848;BME280;22332;51.954;20.118;2022-09-24T06:39:26;100205.63;;;8.11;75.22
35848;BME280;22332;51.954;20.118;2022-09-24T06:42:32;100206.88;;;8.39;75.60
35848;BME280;22332;51.954;20.118;2022-09-24T06:45:37;100209.60;;;8.63;75.74
35848;BME280;22332;51.954;20.118;2022-09-24T06:48:42;100204.14;;;8.86;75.92
35848;BME280;22332;51.954;20.118;2022-09-24T06:51:48;100203.27;;;9.05;75.73
35848;BME280;22332;51.954;20.118;2022-09-24T06:54:54;100200.61;;;9.24;75.93
35848;BME280;22332;51.954;20.118;2022-09-24T06:58:04;100200.42;;;9.44;76.15
35848;BME280;22332;51.954;20.118;2022-09-24T07:01:10;100199.84;;;9.65;75.80
35848;BME280;22332;51.954;20.118;2022-09-24T07:04:16;100197.65;;;9.82;75.46
35848;BME280;22332;51.954;20.118;2022-09-24T07:07:21;100199.13;;;9.97;75.94
35848;BME280;22332;51.954;20.118;2022-09-24T07:10:36;100199.65;;;10.13;75.89
35848;BME280;22332;51.954;20.118;2022-09-24T07:13:42;100199.40;;;10.24;75.37
35848;BME280;22332;51.954;20.118;2022-09-24T07:16:48;100198.95;;;10.38;75.60
35848;BME280;22332;51.954;20.118;2022-09-24T07:19:55;100199.05;;;10.53;75.12
35848;BME280;22332;51.954;20.118;2022-09-24T07:23:00;100198.95;;;10.70;75.05
35848;BME280;22332;51.954;20.118;2022-09-24T07:26:06;100201.52;;;10.85;74.67
35848;BME280;22332;51.954;20.118;2022-09-24T07:29:11;100204.42;;;11.04;74.76
35848;BME280;22332;51.954;20.118;2022-09-24T08:11:30;100215.90;;;12.49;71.90
35848;BME280;22332;51.954;20.118;2022-09-24T08:14:36;100222.16;;;12.51;71.73
35848;BME280;22332;51.954;20.118;2022-09-24T08:20:36;100224.08;;;12.63;71.47
35848;BME280;22332;51.954;20.118;2022-09-24T08:23:43;100223.96;;;12.70;71.54
35848;BME280;22332;51.954;20.118;2022-09-24T08:26:48;100223.33;;;12.79;71.61
35848;BME280;22332;51.954;20.118;2022-09-24T08:29:54;100223.16;;;12.86;71.80
35848;BME280;22332;51.954;20.118;2022-09-24T08:33:00;100220.17;;;12.90;71.33
35848;BME280;22332;51.954;20.118;2022-09-24T08:36:09;100218.84;;;12.93;70.98
35848;BME280;22332;51.954;20.118;2022-09-24T08:39:15;100217.19;;;12.96;71.06
35848;BME280;22332;51.954;20.118;2022-09-24T08:42:30;100223.44;;;13.01;70.91
35848;BME280;22332;51.954;20.118;2022-09-24T08:45:43;100221.15;;;13.06;70.71
35848;BME280;22332;51.954;20.118;2022-09-24T08:49:11;100218.30;;;13.12;70.85
35848;BME280;22332;51.954;20.118;2022-09-24T08:52:29;100218.92;;;13.18;70.58
35848;BME280;22332;51.954;20.118;2022-09-24T08:55:41;100221.16;;;13.25;70.45
35848;BME280;22332;51.954;20.118;2022-09-24T08:58:53;100223.43;;;13.30;70.51
35848;BME280;22332;51.954;20.118;2022-09-24T09:02:13;100220.33;;;13.36;70.44
35848;BME280;22332;51.954;20.118;2022-09-24T09:05:24;100216.58;;;13.41;70.09
35848;BME280;22332;51.954;20.118;2022-09-24T09:08:41;100219.92;;;13.43;69.63
35848;BME280;22332;51.954;20.118;2022-09-24T09:11:50;100215.54;;;13.44;69.63
35848;BME280;22332;51.954;20.118;2022-09-24T09:14:59;100213.38;;;13.48;69.53
35848;BME280;22332;51.954;20.118;2022-09-24T09:18:13;100208.02;;;13.55;69.13
35848;BME280;22332;51.954;20.118;2022-09-24T09:21:27;100208.39;;;13.64;69.04
35848;BME280;22332;51.954;20.118;2022-09-24T09:24:43;100212.02;;;13.76;69.17
35848;BME280;22332;51.954;20.118;2022-09-24T09:27:57;100212.23;;;13.90;69.17
35848;BME280;22332;51.954;20.118;2022-09-24T09:31:08;100202.37;;;14.06;69.13
35848;BME280;22332;51.954;20.118;2022-09-24T09:34:34;100206.33;;;14.20;68.46
35848;BME280;22332;51.954;20.118;2022-09-24T09:37:48;100205.63;;;14.37;68.16
35848;BME280;22332;51.954;20.118;2022-09-24T09:41:10;100199.20;;;14.54;67.93
35848;BME280;22332;51.954;20.118;2022-09-24T09:44:24;100193.45;;;14.72;67.56
35848;BME280;22332;51.954;20.118;2022-09-24T09:47:38;100190.98;;;14.88;67.48
35848;BME280;22332;51.954;20.118;2022-09-24T09:50:47;100193.09;;;15.10;67.34
35848;BME280;22332;51.954;20.118;2022-09-24T09:53:57;100188.05;;;15.29;67.02
35848;BME280;22332;51.954;20.118;2022-09-24T09:57:04;100188.16;;;15.49;66.68
35848;BME280;22332;51.954;20.118;2022-09-24T10:00:24;100193.06;;;15.66;66.36
35848;BME280;22332;51.954;20.118;2022-09-24T10:03:32;100189.34;;;15.81;65.71
35848;BME280;22332;51.954;20.118;2022-09-24T10:06:38;100192.91;;;15.93;65.62
35848;BME280;22332;51.954;20.118;2022-09-24T10:09:45;100186.05;;;16.02;65.46
35848;BME280;22332;51.954;20.118;2022-09-24T10:12:53;100188.25;;;16.13;65.19
35848;BME280;22332;51.954;20.118;2022-09-24T10:16:02;100185.80;;;16.20;64.47
35848;BME280;22332;51.954;20.118;2022-09-24T10:19:17;100187.13;;;16.26;64.23
35848;BME280;22332;51.954;20.118;2022-09-24T10:22:25;100186.17;;;16.30;63.47
35848;BME280;22332;51.954;20.118;2022-09-24T10:25:32;100183.38;;;16.32;63.76
35848;BME280;22332;51.954;20.118;2022-09-24T10:28:43;100182.48;;;16.38;63.73
35848;BME280;22332;51.954;20.118;2022-09-24T10:32:21;100185.79;;;16.41;62.89
35848;BME280;22332;51.954;20.118;2022-09-24T10:35:31;100184.45;;;16.45;62.53
35848;BME280;22332;51.954;20.118;2022-09-24T10:38:39;100178.31;;;16.48;62.36
35848;BME280;22332;51.954;20.118;2022-09-24T10:41:49;100176.05;;;16.51;62.01
35848;BME280;22332;51.954;20.118;2022-09-24T10:44:57;100171.42;;;16.53;62.04
35848;BME280;22332;51.954;20.118;2022-09-24T10:48:11;100172.77;;;16.55;62.01
35848;BME280;22332;51.954;20.118;2022-09-24T10:51:29;100168.42;;;16.61;61.36
35848;BME280;22332;51.954;20.118;2022-09-24T10:54:46;100163.02;;;16.64;61.12
35848;BME280;22332;51.954;20.118;2022-09-24T10:58:04;100164.00;;;16.65;60.38
35848;BME280;22332;51.954;20.118;2022-09-24T11:01:19;100167.47;;;16.64;60.31
35848;BME280;22332;51.954;20.118;2022-09-24T11:04:39;100161.34;;;16.65;60.36
35848;BME280;22332;51.954;20.118;2022-09-24T11:08:00;100166.02;;;16.64;60.03
35848;BME280;22332;51.954;20.118;2022-09-24T11:11:16;100162.88;;;16.65;60.15
35848;BME280;22332;51.954;20.118;2022-09-24T11:14:38;100159.95;;;16.67;59.98
35848;BME280;22332;51.954;20.118;2022-09-24T11:17:55;100156.70;;;16.70;59.61
35848;BME280;22332;51.954;20.118;2022-09-24T11:21:14;100149.09;;;16.74;59.39
35848;BME280;22332;51.954;20.118;2022-09-24T11:24:43;100146.98;;;16.75;58.89
35848;BME280;22332;51.954;20.118;2022-09-24T11:27:58;100148.79;;;16.78;58.68
35848;BME280;22332;51.954;20.118;2022-09-24T11:31:13;100143.98;;;16.85;58.52
35848;BME280;22332;51.954;20.118;2022-09-24T11:34:44;100142.79;;;16.92;57.72
35848;BME280;22332;51.954;20.118;2022-09-24T11:37:59;100146.08;;;17.01;58.21
35848;BME280;22332;51.954;20.118;2022-09-24T11:41:21;100146.59;;;17.04;57.81
35848;BME280;22332;51.954;20.118;2022-09-24T11:44:46;100146.94;;;17.07;58.08
35848;BME280;22332;51.954;20.118;2022-09-24T11:48:10;100142.33;;;17.14;57.88
35848;BME280;22332;51.954;20.118;2022-09-24T11:51:26;100138.73;;;17.16;57.11
35848;BME280;22332;51.954;20.118;2022-09-24T11:54:37;100140.41;;;17.21;57.31
35848;BME280;22332;51.954;20.118;2022-09-24T11:57:48;100138.26;;;17.28;57.24
35848;BME280;22332;51.954;20.118;2022-09-24T12:00:58;100138.24;;;17.34;56.46
35848;BME280;22332;51.954;20.118;2022-09-24T12:04:12;100141.66;;;17.36;56.25
35848;BME280;22332;51.954;20.118;2022-09-24T12:07:25;100141.38;;;17.38;56.25
35848;BME280;22332;51.954;20.118;2022-09-24T12:10:32;100134.79;;;17.41;56.22
35848;BME280;22332;51.954;20.118;2022-09-24T12:13:41;100133.02;;;17.45;55.53
35848;BME280;22332;51.954;20.118;2022-09-24T12:16:55;100132.30;;;17.51;55.96
35848;BME280;22332;51.954;20.118;2022-09-24T12:20:07;100127.85;;;17.56;55.68
35848;BME280;22332;51.954;20.118;2022-09-24T12:23:21;100129.39;;;17.55;55.08
35848;BME280;22332;51.954;20.118;2022-09-24T12:26:31;100129.04;;;17.54;54.97
35848;BME280;22332;51.954;20.118;2022-09-24T12:29:45;100129.52;;;17.53;54.91
35848;BME280;22332;51.954;20.118;2022-09-24T12:33:16;100124.23;;;17.55;54.94
35848;BME280;22332;51.954;20.118;2022-09-24T12:36:40;100124.11;;;17.56;54.68
35848;BME280;22332;51.954;20.118;2022-09-24T12:39:58;100117.45;;;17.61;54.46
35848;BME280;22332;51.954;20.118;2022-09-24T12:43:19;100115.63;;;17.67;54.72
35848;BME280;22332;51.954;20.118;2022-09-24T12:46:31;100117.77;;;17.74;53.96
35848;BME280;22332;51.954;20.118;2022-09-24T12:49:38;100117.14;;;17.76;53.64
35848;BME280;22332;51.954;20.118;2022-09-24T12:52:44;100115.07;;;17.76;53.39
35848;BME280;22332;51.954;20.118;2022-09-24T12:55:50;100113.45;;;17.76;53.36
35848;BME280;22332;51.954;20.118;2022-09-24T12:58:56;100114.59;;;17.78;53.22
35848;BME280;22332;51.954;20.118;2022-09-24T13:02:16;100107.65;;;17.79;53.14
35848;BME280;22332;51.954;20.118;2022-09-24T13:05:31;100108.70;;;17.80;53.33
35848;BME280;22332;51.954;20.118;2022-09-24T13:08:38;100109.35;;;17.79;53.60
35848;BME280;22332;51.954;20.118;2022-09-24T13:11:44;100109.81;;;17.78;53.51
35848;BME280;22332;51.954;20.118;2022-09-24T13:14:53;100108.98;;;17.76;53.38
35848;BME280;22332;51.954;20.118;2022-09-24T13:18:12;100113.45;;;17.75;53.26
35848;BME280;22332;51.954;20.118;2022-09-24T13:21:25;100109.80;;;17.72;52.93
35848;BME280;22332;51.954;20.118;2022-09-24T13:24:43;100109.01;;;17.73;52.90
35848;BME280;22332;51.954;20.118;2022-09-24T13:28:01;100105.90;;;17.78;52.70
35848;BME280;22332;51.954;20.118;2022-09-24T13:31:16;100102.16;;;17.84;52.74
35848;BME280;22332;51.954;20.118;2022-09-24T13:34:28;100100.98;;;17.88;52.24
35848;BME280;22332;51.954;20.118;2022-09-24T13:37:38;100095.77;;;17.85;52.37
35848;BME280;22332;51.954;20.118;2022-09-24T13:40:50;100093.72;;;17.83;52.39
35848;BME280;22332;51.954;20.118;2022-09-24T13:44:03;100096.27;;;17.75;52.33
35848;BME280;22332;51.954;20.118;2022-09-24T13:47:15;100090.71;;;17.63;51.74
35848;BME280;22332;51.954;20.118;2022-09-24T13:50:29;100089.95;;;17.55;52.18
35848;BME280;22332;51.954;20.118;2022-09-24T13:53:38;100094.55;;;17.44;52.20
35848;BME280;22332;51.954;20.118;2022-09-24T13:56:56;100087.90;;;17.32;52.44
35848;BME280;22332;51.954;20.118;2022-09-24T14:00:14;100082.99;;;17.26;51.79
35848;BME280;22332;51.954;20.118;2022-09-24T14:03:22;100080.48;;;17.19;51.93
35848;BME280;22332;51.954;20.118;2022-09-24T14:06:35;100078.13;;;17.15;51.88
35848;BME280;22332;51.954;20.118;2022-09-24T14:09:41;100075.77;;;17.06;51.99
35848;BME280;22332;51.954;20.118;2022-09-24T14:13:00;100075.31;;;16.97;52.05
35848;BME280;22332;51.954;20.118;2022-09-24T14:16:11;100074.12;;;16.87;52.14
35848;BME280;22332;51.954;20.118;2022-09-24T14:19:18;100075.81;;;16.75;52.33
35848;BME280;22332;51.954;20.118;2022-09-24T14:22:25;100076.55;;;16.61;52.13
35848;BME280;22332;51.954;20.118;2022-09-24T14:25:33;100074.36;;;16.44;52.09
35848;BME280;22332;51.954;20.118;2022-09-24T14:28:41;100070.15;;;16.29;52.15
35848;BME280;22332;51.954;20.118;2022-09-24T14:31:48;100068.05;;;16.16;52.14
35848;BME280;22332;51.954;20.118;2022-09-24T14:34:57;100069.23;;;16.03;52.26
35848;BME280;22332;51.954;20.118;2022-09-24T14:38:05;100067.98;;;15.90;52.40
35848;BME280;22332;51.954;20.118;2022-09-24T14:41:16;100066.35;;;15.76;52.52
35848;BME280;22332;51.954;20.118;2022-09-24T14:44:26;100067.77;;;15.67;52.48
35848;BME280;22332;51.954;20.118;2022-09-24T14:47:34;100063.46;;;15.62;52.55
35848;BME280;22332;51.954;20.118;2022-09-24T14:50:41;100064.70;;;15.59;52.80
35848;BME280;22332;51.954;20.118;2022-09-24T14:53:57;100067.25;;;15.57;53.21
35848;BME280;22332;51.954;20.118;2022-09-24T14:57:19;100064.83;;;15.57;53.58
35848;BME280;22332;51.954;20.118;2022-09-24T15:00:34;100064.19;;;15.53;53.74
35848;BME280;22332;51.954;20.118;2022-09-24T15:03:43;100066.13;;;15.49;53.73
35848;BME280;22332;51.954;20.118;2022-09-24T15:06:49;100061.80;;;15.43;53.70
35848;BME280;22332;51.954;20.118;2022-09-24T15:09:56;100060.58;;;15.37;53.95
35848;BME280;22332;51.954;20.118;2022-09-24T15:13:13;100054.65;;;15.33;54.03
35848;BME280;22332;51.954;20.118;2022-09-24T15:16:26;100054.70;;;15.26;53.97
35848;BME280;22332;51.954;20.118;2022-09-24T15:19:32;100055.67;;;15.22;54.19
35848;BME280;22332;51.954;20.118;2022-09-24T15:22:39;100053.30;;;15.16;54.42
35848;BME280;22332;51.954;20.118;2022-09-24T15:25:44;100057.20;;;15.08;54.58
35848;BME280;22332;51.954;20.118;2022-09-24T15:28:51;100061.06;;;14.99;54.99
35848;BME280;22332;51.954;20.118;2022-09-24T15:31:57;100056.40;;;14.90;54.82
35848;BME280;22332;51.954;20.118;2022-09-24T15:35:03;100057.63;;;14.83;55.44
35848;BME280;22332;51.954;20.118;2022-09-24T15:38:14;100055.27;;;14.75;56.14
35848;BME280;22332;51.954;20.118;2022-09-24T15:41:20;100057.98;;;14.67;56.51
35848;BME280;22332;51.954;20.118;2022-09-24T15:44:27;100056.05;;;14.58;56.96
35848;BME280;22332;51.954;20.118;2022-09-24T15:47:32;100063.71;;;14.49;56.96
35848;BME280;22332;51.954;20.118;2022-09-24T15:50:38;100065.16;;;14.41;57.12
35848;BME280;22332;51.954;20.118;2022-09-24T15:53:43;100064.02;;;14.34;57.39
35848;BME280;22332;51.954;20.118;2022-09-24T15:56:49;100062.19;;;14.29;57.61
35848;BME280;22332;51.954;20.118;2022-09-24T15:59:55;100061.46;;;14.24;57.76
35848;BME280;22332;51.954;20.118;2022-09-24T16:03:01;100065.02;;;14.20;58.18
35848;BME280;22332;51.954;20.118;2022-09-24T16:06:09;100062.21;;;14.14;58.27
35848;BME280;22332;51.954;20.118;2022-09-24T16:09:15;100063.86;;;14.09;58.88
35848;BME280;22332;51.954;20.118;2022-09-24T16:12:21;100062.29;;;14.02;59.13
35848;BME280;22332;51.954;20.118;2022-09-24T16:15:31;100063.08;;;13.95;59.70
35848;BME280;22332;51.954;20.118;2022-09-24T16:18:36;100064.23;;;13.88;60.00
35848;BME280;22332;51.954;20.118;2022-09-24T16:21:42;100065.17;;;13.80;60.29
35848;BME280;22332;51.954;20.118;2022-09-24T16:24:48;100067.84;;;13.71;60.58
35848;BME280;22332;51.954;20.118;2022-09-24T16:27:54;100068.54;;;13.62;60.89
35848;BME280;22332;51.954;20.118;2022-09-24T16:31:05;100065.17;;;13.54;61.15
35848;BME280;22332;51.954;20.118;2022-09-24T16:34:12;100069.19;;;13.48;61.42
35848;BME280;22332;51.954;20.118;2022-09-24T16:37:17;100065.60;;;13.44;61.35
35848;BME280;22332;51.954;20.118;2022-09-24T16:40:23;100063.65;;;13.41;61.73
35848;BME280;22332;51.954;20.118;2022-09-24T16:43:28;100065.75;;;13.36;61.74
35848;BME280;22332;51.954;20.118;2022-09-24T16:46:34;100066.20;;;13.27;61.97
35848;BME280;22332;51.954;20.118;2022-09-24T16:49:39;100068.80;;;13.22;62.28
35848;BME280;22332;51.954;20.118;2022-09-24T16:52:44;100069.41;;;13.15;62.46
35848;BME280;22332;51.954;20.118;2022-09-24T16:55:52;100075.27;;;13.07;62.57
35848;BME280;22332;51.954;20.118;2022-09-24T16:59:10;100070.70;;;13.01;62.90
35848;BME280;22332;51.954;20.118;2022-09-24T17:02:15;100067.38;;;12.93;63.01
35848;BME280;22332;51.954;20.118;2022-09-24T17:05:21;100070.73;;;12.86;63.23
35848;BME280;22332;51.954;20.118;2022-09-24T17:08:26;100068.10;;;12.79;63.46
35848;BME280;22332;51.954;20.118;2022-09-24T17:11:52;100067.27;;;12.75;63.59